sensor_id;sensor_type;location;lat;lon;timestamp;pressure;altitude;pressure_sealevel;temperature;humidity
23574;BME280;11965;53.640;10.050;2023-08-12T00:01:19;101544.59;;;18.37;100.00
23574;BME280;11965;53.640;10.050;2023-08-12T00:03:47;101548.88;;;18.40;100.00
23574;BME280;11965;53.640;10.050;2023-08-12T00:06:14;101536.41;;;18.36;100.00
23574;BME280;11965;53.640;10.050;2023-08-12T00:08:40;101538.97;;;18.37;100.00
23574;BME280;11965;53.640;10.050;2023-08-12T00:11:07;101533.63;;;18.36;100.00
23574;BME280;11965;53.640;10.050;2023-08-12T00:13:34;101542.03;;;18.36;100.00
23574;BME280;11965;53.640;10.050;2023-08-12T00:16:03;101543.91;;;18.42;100.00
23574;BME280;11965;53.640;10.050;2023-08-12T00:18:30;101534.84;;;18.40;100.00
23574;BME280;11965;53.640;10.050;2023-08-12T00:21:06;101537.06;;;18.38;100.00
23574;BME280;11965;53.640;10.050;2023-08-12T00:23:38;101540.94;;;18.37;100.00
23574;BME280;11965;53.640;10.050;2023-08-12T00:26:05;101540.53;;;18.33;100.00
23574;BME280;11965;53.640;10.050;2023-08-12T00:28:32;101540.13;;;18.29;100.00
23574;BME280;11965;53.640;10.050;2023-08-12T00:30:59;101530.84;;;18.29;100.00
23574;BME280;11965;53.640;10.050;2023-08-12T00:33:27;101525.31;;;18.22;100.00
23574;BME280;11965;53.640;10.050;2023-08-12T00:35:54;101530.47;;;18.25;100.00
23574;BME280;11965;53.640;10.050;2023-08-12T00:38:21;101520.56;;;18.23;100.00
23574;BME280;11965;53.640;10.050;2023-08-12T00:40:48;101516.88;;;18.22;100.00
23574;BME280;11965;53.640;10.050;2023-08-12T00:43:15;101521.19;;;18.25;100.00
23574;BME280;11965;53.640;10.050;2023-08-12T00:45:42;101520.56;;;18.23;100.00
23574;BME280;11965;53.640;10.050;2023-08-12T00:48:10;101514.88;;;18.29;100.00
23574;BME280;11965;53.640;10.050;2023-08-12T00:50:40;101515.56;;;18.25;100.00
23574;BME280;11965;53.640;10.050;2023-08-12T00:53:12;101522.22;;;18.30;100.00
23574;BME280;11965;53.640;10.050;2023-08-12T00:55:42;101522.13;;;18.37;100.00
23574;BME280;11965;53.640;10.050;2023-08-12T00:58:10;101520.91;;;18.33;100.00
23574;BME280;11965;53.640;10.050;2023-08-12T01:00:40;101516.81;;;18.29;100.00
23574;BME280;11965;53.640;10.050;2023-08-12T01:03:07;101519.63;;;18.29;100.00
23574;BME280;11965;53.640;10.050;2023-08-12T01:05:34;101516.44;;;18.25;100.00
23574;BME280;11965;53.640;10.050;2023-08-12T01:08:03;101517.28;;;18.26;100.00
23574;BME280;11965;53.640;10.050;2023-08-12T01:10:35;101508.41;;;18.29;100.00
23574;BME280;11965;53.640;10.050;2023-08-12T01:13:13;101515.13;;;18.28;100.00
23574;BME280;11965;53.640;10.050;2023-08-12T01:15:43;101517.97;;;18.21;100.00
23574;BME280;11965;53.640;10.050;2023-08-12T01:18:14;101506.13;;;18.19;100.00
23574;BME280;11965;53.640;10.050;2023-08-12T01:20:41;101500.53;;;18.19;100.00
23574;BME280;11965;53.640;10.050;2023-08-12T01:23:12;101502.28;;;18.14;100.00
23574;BME280;11965;53.640;10.050;2023-08-12T01:25:40;101502.28;;;18.14;100.00
23574;BME280;11965;53.640;10.050;2023-08-12T01:28:08;101501.03;;;18.09;100.00
23574;BME280;11965;53.640;10.050;2023-08-12T01:30:43;101496.34;;;18.03;100.00
23574;BME280;11965;53.640;10.050;2023-08-12T01:33:23;101496.38;;;17.97;100.00
23574;BME280;11965;53.640;10.050;2023-08-12T01:35:57;101491.56;;;18.04;100.00
23574;BME280;11965;53.640;10.050;2023-08-12T01:38:30;101495.69;;;18.01;100.00
23574;BME280;11965;53.640;10.050;2023-08-12T01:41:09;101498.97;;;17.98;100.00
23574;BME280;11965;53.640;10.050;2023-08-12T01:43:44;101488.13;;;18.02;100.00
23574;BME280;11965;53.640;10.050;2023-08-12T01:46:12;101502.09;;;18.33;100.00
23574;BME280;11965;53.640;10.050;2023-08-12T01:48:38;101501.59;;;18.43;100.00
23574;BME280;11965;53.640;10.050;2023-08-12T01:51:05;101490.38;;;18.18;100.00
23574;BME280;11965;53.640;10.050;2023-08-12T01:53:33;101487.84;;;17.85;100.00
23574;BME280;11965;53.640;10.050;2023-08-12T01:56:00;101491.91;;;17.89;100.00
23574;BME280;11965;53.640;10.050;2023-08-12T01:58:27;101491.06;;;18.14;100.00
23574;BME280;11965;53.640;10.050;2023-08-12T02:00:54;101488.59;;;17.99;100.00
23574;BME280;11965;53.640;10.050;2023-08-12T02:03:21;101476.88;;;17.77;100.00
23574;BME280;11965;53.640;10.050;2023-08-12T02:05:47;101467.72;;;17.63;100.00
23574;BME280;11965;53.640;10.050;2023-08-12T02:08:14;101471.25;;;17.83;100.00
23574;BME280;11965;53.640;10.050;2023-08-12T02:10:42;101475.53;;;17.86;100.00
23574;BME280;11965;53.640;10.050;2023-08-12T02:13:09;101474.28;;;17.75;100.00
23574;BME280;11965;53.640;10.050;2023-08-12T02:15:36;101477.44;;;17.60;100.00
23574;BME280;11965;53.640;10.050;2023-08-12T02:18:04;101465.03;;;17.43;100.00
23574;BME280;11965;53.640;10.050;2023-08-12T02:20:31;101464.41;;;17.41;100.00
23574;BME280;11965;53.640;10.050;2023-08-12T02:23:00;101454.91;;;17.42;100.00
23574;BME280;11965;53.640;10.050;2023-08-12T02:25:28;101456.41;;;17.44;100.00
23574;BME280;11965;53.640;10.050;2023-08-12T02:27:57;101458.09;;;17.45;100.00
23574;BME280;11965;53.640;10.050;2023-08-12T02:30:23;101452.97;;;17.42;100.00
23574;BME280;11965;53.640;10.050;2023-08-12T02:32:50;101459.41;;;17.50;100.00
23574;BME280;11965;53.640;10.050;2023-08-12T02:35:18;101456.16;;;17.46;100.00
23574;BME280;11965;53.640;10.050;2023-08-12T02:37:45;101466.50;;;17.45;100.00
23574;BME280;11965;53.640;10.050;2023-08-12T02:40:12;101464.16;;;17.42;100.00
23574;BME280;11965;53.640;10.050;2023-08-12T02:42:38;101465.47;;;17.40;100.00
23574;BME280;11965;53.640;10.050;2023-08-12T02:45:07;101450.69;;;17.26;100.00
23574;BME280;11965;53.640;10.050;2023-08-12T02:47:34;101460.41;;;17.23;100.00
23574;BME280;11965;53.640;10.050;2023-08-12T02:50:01;101459.31;;;17.25;100.00
23574;BME280;11965;53.640;10.050;2023-08-12T02:52:28;101463.59;;;17.27;100.00
23574;BME280;11965;53.640;10.050;2023-08-12T02:54:55;101472.28;;;17.19;100.00
23574;BME280;11965;53.640;10.050;2023-08-12T02:57:22;101456.56;;;17.11;100.00
23574;BME280;11965;53.640;10.050;2023-08-12T02:59:48;101453.38;;;17.08;100.00
23574;BME280;11965;53.640;10.050;2023-08-12T03:02:17;101453.78;;;17.11;100.00
23574;BME280;11965;53.640;10.050;2023-08-12T03:04:43;101461.75;;;17.14;100.00
23574;BME280;11965;53.640;10.050;2023-08-12T03:07:10;101464.97;;;17.18;100.00
23574;BME280;11965;53.640;10.050;2023-08-12T03:09:37;101467.97;;;17.23;100.00
23574;BME280;11965;53.640;10.050;2023-08-12T03:12:05;101461.69;;;17.28;100.00
23574;BME280;11965;53.640;10.050;2023-08-12T03:14:32;101451.34;;;17.28;100.00
23574;BME280;11965;53.640;10.050;2023-08-12T03:17:00;101449.78;;;17.32;100.00
23574;BME280;11965;53.640;10.050;2023-08-12T03:19:30;101443.31;;;17.38;100.00
23574;BME280;11965;53.640;10.050;2023-08-12T03:21:57;101442.28;;;17.26;100.00
23574;BME280;11965;53.640;10.050;2023-08-12T03:24:24;101439.34;;;17.14;100.00
23574;BME280;11965;53.640;10.050;2023-08-12T03:26:51;101446.47;;;17.10;100.00
23574;BME280;11965;53.640;10.050;2023-08-12T03:29:18;101441.50;;;17.12;100.00
23574;BME280;11965;53.640;10.050;2023-08-12T03:31:46;101437.84;;;17.12;100.00
23574;BME280;11965;53.640;10.050;2023-08-12T03:34:13;101436.34;;;17.09;100.00
23574;BME280;11965;53.640;10.050;2023-08-12T03:36:44;101438.72;;;17.12;100.00
23574;BME280;11965;53.640;10.050;2023-08-12T03:39:14;101428.41;;;17.06;100.00
23574;BME280;11965;53.640;10.050;2023-08-12T03:41:41;101423.22;;;17.03;100.00
23574;BME280;11965;53.640;10.050;2023-08-12T03:44:09;101421.97;;;16.99;100.00
23574;BME280;11965;53.640;10.050;2023-08-12T03:46:36;101423.88;;;17.05;100.00
23574;BME280;11965;53.640;10.050;2023-08-12T03:49:03;101411.59;;;17.06;100.00
23574;BME280;11965;53.640;10.050;2023-08-12T03:51:30;101417.63;;;17.03;100.00
23574;BME280;11965;53.640;10.050;2023-08-12T03:53:59;101419.16;;;16.99;100.00
23574;BME280;11965;53.640;10.050;2023-08-12T03:56:27;101422.88;;;16.93;100.00
23574;BME280;11965;53.640;10.050;2023-08-12T03:58:53;101422.88;;;16.86;100.00
23574;BME280;11965;53.640;10.050;2023-08-12T04:01:22;101421.63;;;16.82;100.00
23574;BME280;11965;53.640;10.050;2023-08-12T04:03:49;101419.50;;;16.77;100.00
23574;BME280;11965;53.640;10.050;2023-08-12T04:06:17;101425.09;;;16.77;100.00
23574;BME280;11965;53.640;10.050;2023-08-12T04:08:44;101428.88;;;16.90;100.00
23574;BME280;11965;53.640;10.050;2023-08-12T04:11:12;101423.94;;;16.92;100.00
23574;BME280;11965;53.640;10.050;2023-08-12T04:13:40;101434.63;;;17.08;100.00
23574;BME280;11965;53.640;10.050;2023-08-12T04:16:07;101434.91;;;17.32;100.00
23574;BME280;11965;53.640;10.050;2023-08-12T04:18:34;101431.13;;;17.19;100.00
23574;BME280;11965;53.640;10.050;2023-08-12T04:21:00;101422.56;;;17.08;100.00
23574;BME280;11965;53.640;10.050;2023-08-12T04:23:27;101414.63;;;17.05;100.00
23574;BME280;11965;53.640;10.050;2023-08-12T04:25:54;101400.75;;;17.16;100.00
23574;BME280;11965;53.640;10.050;2023-08-12T04:28:26;101401.56;;;17.23;100.00
23574;BME280;11965;53.640;10.050;2023-08-12T04:30:53;101406.63;;;17.08;100.00
23574;BME280;11965;53.640;10.050;2023-08-12T04:33:22;101419.38;;;17.04;100.00
23574;BME280;11965;53.640;10.050;2023-08-12T04:35:50;101425.81;;;17.05;100.00
23574;BME280;11965;53.640;10.050;2023-08-12T04:38:18;101414.13;;;17.14;100.00
23574;BME280;11965;53.640;10.050;2023-08-12T04:40:48;101422.72;;;17.19;100.00
23574;BME280;11965;53.640;10.050;2023-08-12T04:43:16;101413.88;;;17.22;100.00
23574;BME280;11965;53.640;10.050;2023-08-12T04:45:46;101423.53;;;17.27;100.00
23574;BME280;11965;53.640;10.050;2023-08-12T04:48:14;101417.00;;;17.33;100.00
23574;BME280;11965;53.640;10.050;2023-08-12T04:50:42;101418.09;;;17.38;100.00
23574;BME280;11965;53.640;10.050;2023-08-12T04:53:08;101413.63;;;17.24;100.00
23574;BME280;11965;53.640;10.050;2023-08-12T04:55:35;101427.44;;;17.19;100.00
23574;BME280;11965;53.640;10.050;2023-08-12T04:58:03;101423.34;;;17.21;100.00
23574;BME280;11965;53.640;10.050;2023-08-12T05:00:30;101420.09;;;17.25;100.00
23574;BME280;11965;53.640;10.050;2023-08-12T05:02:59;101415.94;;;17.34;100.00
23574;BME280;11965;53.640;10.050;2023-08-12T05:05:26;101422.19;;;17.36;100.00
23574;BME280;11965;53.640;10.050;2023-08-12T05:07:53;101418.47;;;17.42;100.00
23574;BME280;11965;53.640;10.050;2023-08-12T05:10:20;101422.25;;;17.54;100.00
23574;BME280;11965;53.640;10.050;2023-08-12T05:12:47;101417.75;;;17.53;100.00
23574;BME280;11965;53.640;10.050;2023-08-12T05:15:16;101422.78;;;17.44;100.00
23574;BME280;11965;53.640;10.050;2023-08-12T05:17:42;101412.03;;;17.41;100.00
23574;BME280;11965;53.640;10.050;2023-08-12T05:20:12;101402.69;;;17.48;100.00
23574;BME280;11965;53.640;10.050;2023-08-12T05:22:40;101404.53;;;17.60;100.00
23574;BME280;11965;53.640;10.050;2023-08-12T05:25:07;101411.53;;;17.76;100.00
23574;BME280;11965;53.640;10.050;2023-08-12T05:27:34;101425.66;;;17.95;100.00
23574;BME280;11965;53.640;10.050;2023-08-12T05:30:01;101429.69;;;17.99;100.00
23574;BME280;11965;53.640;10.050;2023-08-12T05:32:28;101427.84;;;17.86;100.00
23574;BME280;11965;53.640;10.050;2023-08-12T05:34:55;101419.53;;;17.73;100.00
23574;BME280;11965;53.640;10.050;2023-08-12T05:37:23;101427.84;;;17.54;100.00
23574;BME280;11965;53.640;10.050;2023-08-12T05:39:50;101438.22;;;17.54;100.00
23574;BME280;11965;53.640;10.050;2023-08-12T05:42:17;101432.28;;;17.69;100.00
23574;BME280;11965;53.640;10.050;2023-08-12T05:44:43;101443.91;;;17.79;100.00
23574;BME280;11965;53.640;10.050;2023-08-12T05:47:10;101438.13;;;17.67;100.00
23574;BME280;11965;53.640;10.050;2023-08-12T05:49:37;101440.53;;;17.63;100.00
23574;BME280;11965;53.640;10.050;2023-08-12T05:52:05;101430.13;;;17.71;100.00
23574;BME280;11965;53.640;10.050;2023-08-12T05:54:33;101424.91;;;17.74;100.00
23574;BME280;11965;53.640;10.050;2023-08-12T05:57:00;101435.78;;;17.64;100.00
23574;BME280;11965;53.640;10.050;2023-08-12T05:59:27;101436.25;;;17.61;100.00
23574;BME280;11965;53.640;10.050;2023-08-12T06:01:54;101438.19;;;17.60;100.00
23574;BME280;11965;53.640;10.050;2023-08-12T06:04:21;101442.41;;;17.70;100.00
23574;BME280;11965;53.640;10.050;2023-08-12T06:06:48;101443.91;;;17.72;100.00
23574;BME280;11965;53.640;10.050;2023-08-12T06:09:14;101441.28;;;17.84;100.00
23574;BME280;11965;53.640;10.050;2023-08-12T06:11:43;101436.88;;;17.95;100.00
23574;BME280;11965;53.640;10.050;2023-08-12T06:14:09;101433.19;;;17.94;100.00
23574;BME280;11965;53.640;10.050;2023-08-12T06:16:36;101435.22;;;17.87;100.00
23574;BME280;11965;53.640;10.050;2023-08-12T06:19:03;101445.41;;;17.81;100.00
23574;BME280;11965;53.640;10.050;2023-08-12T06:21:30;101438.38;;;17.65;100.00
23574;BME280;11965;53.640;10.050;2023-08-12T06:23:57;101439.22;;;17.66;100.00
23574;BME280;11965;53.640;10.050;2023-08-12T06:26:24;101441.34;;;17.71;100.00
23574;BME280;11965;53.640;10.050;2023-08-12T06:28:52;101436.72;;;17.83;100.00
23574;BME280;11965;53.640;10.050;2023-08-12T06:31:19;101433.53;;;17.79;100.00
23574;BME280;11965;53.640;10.050;2023-08-12T06:33:46;101427.72;;;17.74;100.00
23574;BME280;11965;53.640;10.050;2023-08-12T06:36:12;101436.53;;;17.78;100.00
23574;BME280;11965;53.640;10.050;2023-08-12T06:38:39;101419.88;;;17.90;100.00
23574;BME280;11965;53.640;10.050;2023-08-12T06:41:06;101425.06;;;17.86;100.00
23574;BME280;11965;53.640;10.050;2023-08-12T06:43:33;101421.41;;;17.85;100.00
23574;BME280;11965;53.640;10.050;2023-08-12T06:46:01;101431.31;;;17.88;100.00
23574;BME280;11965;53.640;10.050;2023-08-12T06:48:28;101429.53;;;17.94;100.00
23574;BME280;11965;53.640;10.050;2023-08-12T06:50:55;101428.22;;;17.96;100.00
23574;BME280;11965;53.640;10.050;2023-08-12T06:53:24;101415.22;;;18.02;100.00
23574;BME280;11965;53.640;10.050;2023-08-12T06:55:51;101408.97;;;18.00;100.00
23574;BME280;11965;53.640;10.050;2023-08-12T06:58:17;101403.53;;;18.05;100.00
23574;BME280;11965;53.640;10.050;2023-08-12T07:00:44;101394.53;;;17.96;100.00
23574;BME280;11965;53.640;10.050;2023-08-12T07:03:12;101389.88;;;17.90;100.00
23574;BME280;11965;53.640;10.050;2023-08-12T07:05:39;101381.66;;;17.88;100.00
23574;BME280;11965;53.640;10.050;2023-08-12T07:08:06;101388.66;;;18.04;100.00
23574;BME280;11965;53.640;10.050;2023-08-12T07:10:33;101395.75;;;18.25;100.00
23574;BME280;11965;53.640;10.050;2023-08-12T07:13:00;101396.31;;;18.52;100.00
23574;BME280;11965;53.640;10.050;2023-08-12T07:15:26;101396.94;;;18.73;100.00
23574;BME280;11965;53.640;10.050;2023-08-12T07:17:53;101379.78;;;18.63;100.00
23574;BME280;11965;53.640;10.050;2023-08-12T07:20:21;101386.41;;;18.68;100.00
23574;BME280;11965;53.640;10.050;2023-08-12T07:22:48;101375.94;;;18.94;100.00
23574;BME280;11965;53.640;10.050;2023-08-12T07:25:15;101383.78;;;19.04;100.00
23574;BME280;11965;53.640;10.050;2023-08-12T07:27:42;101377.34;;;19.15;100.00
23574;BME280;11965;53.640;10.050;2023-08-12T07:30:09;101377.72;;;19.49;100.00
23574;BME280;11965;53.640;10.050;2023-08-12T07:32:37;101368.56;;;19.53;100.00
23574;BME280;11965;53.640;10.050;2023-08-12T07:35:08;101366.19;;;19.80;100.00
23574;BME280;11965;53.640;10.050;2023-08-12T07:37:36;101361.03;;;19.77;100.00
23574;BME280;11965;53.640;10.050;2023-08-12T07:40:04;101362.94;;;19.65;100.00
23574;BME280;11965;53.640;10.050;2023-08-12T07:42:31;101362.19;;;19.46;100.00
23574;BME280;11965;53.640;10.050;2023-08-12T07:44:57;101366.59;;;19.65;100.00
23574;BME280;11965;53.640;10.050;2023-08-12T07:47:24;101362.50;;;19.68;100.00
23574;BME280;11965;53.640;10.050;2023-08-12T07:49:51;101371.56;;;19.94;100.00
23574;BME280;11965;53.640;10.050;2023-08-12T07:52:20;101371.41;;;20.36;100.00
23574;BME280;11965;53.640;10.050;2023-08-12T07:54:49;101372.56;;;20.75;100.00
23574;BME280;11965;53.640;10.050;2023-08-12T07:57:16;101360.56;;;20.68;100.00
23574;BME280;11965;53.640;10.050;2023-08-12T07:59:43;101359.50;;;20.57;100.00
23574;BME280;11965;53.640;10.050;2023-08-12T08:02:09;101356.22;;;20.89;100.00
23574;BME280;11965;53.640;10.050;2023-08-12T08:04:36;101360.00;;;20.94;100.00
23574;BME280;11965;53.640;10.050;2023-08-12T08:07:03;101353.88;;;20.57;100.00
23574;BME280;11965;53.640;10.050;2023-08-12T08:09:30;101352.41;;;20.43;100.00
23574;BME280;11965;53.640;10.050;2023-08-12T08:11:59;101358.28;;;20.41;100.00
23574;BME280;11965;53.640;10.050;2023-08-12T08:14:27;101368.06;;;20.62;100.00
23574;BME280;11965;53.640;10.050;2023-08-12T08:16:54;101362.88;;;20.71;100.00
23574;BME280;11965;53.640;10.050;2023-08-12T08:19:20;101361.06;;;20.65;100.00
23574;BME280;11965;53.640;10.050;2023-08-12T08:21:47;101359.00;;;20.60;100.00
23574;BME280;11965;53.640;10.050;2023-08-12T08:24:14;101358.38;;;20.70;100.00
23574;BME280;11965;53.640;10.050;2023-08-12T08:26:41;101360.16;;;20.88;100.00
23574;BME280;11965;53.640;10.050;2023-08-12T08:29:09;101359.88;;;20.89;100.00
23574;BME280;11965;53.640;10.050;2023-08-12T08:31:36;101360.16;;;20.88;100.00
23574;BME280;11965;53.640;10.050;2023-08-12T08:34:03;101358.59;;;20.80;100.00
23574;BME280;11965;53.640;10.050;2023-08-12T08:36:30;101361.69;;;20.67;100.00
23574;BME280;11965;53.640;10.050;2023-08-12T08:38:57;101353.72;;;21.04;100.00
23574;BME280;11965;53.640;10.050;2023-08-12T08:41:26;101356.63;;;21.09;100.00
23574;BME280;11965;53.640;10.050;2023-08-12T08:44:02;101360.41;;;21.15;100.00
23574;BME280;11965;53.640;10.050;2023-08-12T08:46:31;101361.88;;;21.34;100.00
23574;BME280;11965;53.640;10.050;2023-08-12T08:48:59;101360.75;;;21.18;100.00
23574;BME280;11965;53.640;10.050;2023-08-12T08:51:27;101361.53;;;21.76;100.00
23574;BME280;11965;53.640;10.050;2023-08-12T08:53:56;101364.41;;;21.98;100.00
23574;BME280;11965;53.640;10.050;2023-08-12T08:56:24;101364.78;;;21.68;100.00
23574;BME280;11965;53.640;10.050;2023-08-12T08:58:52;101358.06;;;21.40;100.00
23574;BME280;11965;53.640;10.050;2023-08-12T09:01:20;101348.84;;;21.45;100.00
23574;BME280;11965;53.640;10.050;2023-08-12T09:03:51;101354.69;;;21.27;100.00
23574;BME280;11965;53.640;10.050;2023-08-12T09:06:20;101353.09;;;21.31;100.00
23574;BME280;11965;53.640;10.050;2023-08-12T09:08:51;101350.06;;;21.66;100.00
23574;BME280;11965;53.640;10.050;2023-08-12T09:11:19;101354.50;;;21.62;100.00
23574;BME280;11965;53.640;10.050;2023-08-12T09:13:46;101336.13;;;21.43;100.00
23574;BME280;11965;53.640;10.050;2023-08-12T09:16:14;101343.22;;;21.45;100.00
23574;BME280;11965;53.640;10.050;2023-08-12T09:18:42;101341.75;;;21.43;100.00
23574;BME280;11965;53.640;10.050;2023-08-12T09:21:11;101341.19;;;21.57;100.00
23574;BME280;11965;53.640;10.050;2023-08-12T09:23:39;101339.44;;;21.73;100.00
23574;BME280;11965;53.640;10.050;2023-08-12T09:26:14;101341.16;;;21.74;100.00
23574;BME280;11965;53.640;10.050;2023-08-12T09:28:42;101340.41;;;21.79;100.00
23574;BME280;11965;53.640;10.050;2023-08-12T09:31:22;101340.81;;;21.54;100.00
23574;BME280;11965;53.640;10.050;2023-08-12T09:33:51;101342.97;;;21.47;100.00
23574;BME280;11965;53.640;10.050;2023-08-12T09:36:21;101338.88;;;21.71;100.00
23574;BME280;11965;53.640;10.050;2023-08-12T09:38:47;101329.88;;;22.13;100.00
23574;BME280;11965;53.640;10.050;2023-08-12T09:41:15;101330.00;;;22.18;100.00
23574;BME280;11965;53.640;10.050;2023-08-12T09:43:42;101338.88;;;21.71;100.00
23574;BME280;11965;53.640;10.050;2023-08-12T09:46:11;101335.47;;;21.24;100.00
23574;BME280;11965;53.640;10.050;2023-08-12T09:48:39;101333.38;;;21.02;100.00
23574;BME280;11965;53.640;10.050;2023-08-12T09:51:06;101344.09;;;20.88;100.00
23574;BME280;11965;53.640;10.050;2023-08-12T09:53:35;101338.69;;;21.15;100.00
23574;BME280;11965;53.640;10.050;2023-08-12T09:56:06;101338.19;;;21.35;100.00
23574;BME280;11965;53.640;10.050;2023-08-12T09:58:35;101339.88;;;21.19;100.00
23574;BME280;11965;53.640;10.050;2023-08-12T10:01:03;101332.22;;;21.15;100.00
23574;BME280;11965;53.640;10.050;2023-08-12T10:03:32;101338.34;;;21.12;100.00
23574;BME280;11965;53.640;10.050;2023-08-12T10:06:01;101331.78;;;21.23;100.00
23574;BME280;11965;53.640;10.050;2023-08-12T10:08:29;101331.25;;;21.55;100.00
23574;BME280;11965;53.640;10.050;2023-08-12T10:10:58;101341.50;;;21.44;100.00
23574;BME280;11965;53.640;10.050;2023-08-12T10:13:25;101334.66;;;21.57;100.00
23574;BME280;11965;53.640;10.050;2023-08-12T10:15:52;101331.25;;;21.72;100.00
23574;BME280;11965;53.640;10.050;2023-08-12T10:18:19;101330.63;;;21.36;100.00
23574;BME280;11965;53.640;10.050;2023-08-12T10:20:49;101327.31;;;21.39;100.00
23574;BME280;11965;53.640;10.050;2023-08-12T10:23:17;101322.72;;;21.21;100.00
23574;BME280;11965;53.640;10.050;2023-08-12T10:25:45;101320.19;;;20.91;100.00
23574;BME280;11965;53.640;10.050;2023-08-12T10:28:13;101332.38;;;20.80;100.00
23574;BME280;11965;53.640;10.050;2023-08-12T10:30:41;101318.69;;;20.71;100.00
23574;BME280;11965;53.640;10.050;2023-08-12T10:33:08;101318.31;;;20.68;100.00
23574;BME280;11965;53.640;10.050;2023-08-12T10:35:43;101310.78;;;20.85;100.00
23574;BME280;11965;53.640;10.050;2023-08-12T10:38:13;101311.25;;;21.11;100.00
23574;BME280;11965;53.640;10.050;2023-08-12T10:40:41;101316.66;;;21.12;100.00
23574;BME280;11965;53.640;10.050;2023-08-12T10:43:08;101321.19;;;21.30;100.00
23574;BME280;11965;53.640;10.050;2023-08-12T10:45:46;101315.94;;;21.51;100.00
23574;BME280;11965;53.640;10.050;2023-08-12T10:48:17;101321.47;;;21.29;100.00
23574;BME280;11965;53.640;10.050;2023-08-12T10:50:48;101317.44;;;21.25;100.00
23574;BME280;11965;53.640;10.050;2023-08-12T10:53:26;101307.34;;;21.12;100.00
23574;BME280;11965;53.640;10.050;2023-08-12T10:55:58;101290.78;;;21.32;100.00
23574;BME280;11965;53.640;10.050;2023-08-12T10:58:34;101295.25;;;21.62;100.00
23574;BME280;11965;53.640;10.050;2023-08-12T11:01:02;101294.28;;;21.90;100.00
23574;BME280;11965;53.640;10.050;2023-08-12T11:03:32;101287.38;;;22.03;100.00
23574;BME280;11965;53.640;10.050;2023-08-12T11:06:00;101281.00;;;22.30;100.00
23574;BME280;11965;53.640;10.050;2023-08-12T11:08:27;101293.22;;;23.06;100.00
23574;BME280;11965;53.640;10.050;2023-08-12T11:10:55;101276.41;;;22.94;100.00
23574;BME280;11965;53.640;10.050;2023-08-12T11:13:27;101279.50;;;22.93;100.00
23574;BME280;11965;53.640;10.050;2023-08-12T11:16:07;101276.03;;;23.13;100.00
23574;BME280;11965;53.640;10.050;2023-08-12T11:18:34;101272.22;;;23.62;100.00
23574;BME280;11965;53.640;10.050;2023-08-12T11:21:01;101274.53;;;24.12;100.00
23574;BME280;11965;53.640;10.050;2023-08-12T11:23:29;101270.84;;;24.12;100.00
23574;BME280;11965;53.640;10.050;2023-08-12T11:25:57;101267.69;;;24.03;100.00
23574;BME280;11965;53.640;10.050;2023-08-12T11:28:24;101271.06;;;24.00;100.00
23574;BME280;11965;53.640;10.050;2023-08-12T11:30:51;101273.09;;;22.98;100.00
23574;BME280;11965;53.640;10.050;2023-08-12T11:33:20;101269.38;;;22.48;100.00
23574;BME280;11965;53.640;10.050;2023-08-12T11:35:47;101269.41;;;22.26;100.00
23574;BME280;11965;53.640;10.050;2023-08-12T11:38:15;101271.44;;;22.31;100.00
23574;BME280;11965;53.640;10.050;2023-08-12T11:40:43;101275.09;;;22.31;100.00
23574;BME280;11965;53.640;10.050;2023-08-12T11:43:10;101275.91;;;21.71;100.00
23574;BME280;11965;53.640;10.050;2023-08-12T11:45:36;101271.16;;;21.37;100.00
23574;BME280;11965;53.640;10.050;2023-08-12T11:48:04;101270.34;;;21.08;100.00
23574;BME280;11965;53.640;10.050;2023-08-12T11:50:33;101259.31;;;20.90;100.00
23574;BME280;11965;53.640;10.050;2023-08-12T11:53:00;101266.97;;;20.78;100.00
23574;BME280;11965;53.640;10.050;2023-08-12T11:55:27;101264.47;;;20.64;100.00
23574;BME280;11965;53.640;10.050;2023-08-12T11:57:54;101264.97;;;20.61;100.00
23574;BME280;11965;53.640;10.050;2023-08-12T12:00:21;101261.31;;;20.61;100.00
23574;BME280;11965;53.640;10.050;2023-08-12T12:02:50;101260.44;;;20.60;100.00
23574;BME280;11965;53.640;10.050;2023-08-12T12:05:22;101260.94;;;20.57;100.00
23574;BME280;11965;53.640;10.050;2023-08-12T12:07:50;101265.75;;;20.73;100.00
23574;BME280;11965;53.640;10.050;2023-08-12T12:10:18;101266.66;;;20.62;100.00
23574;BME280;11965;53.640;10.050;2023-08-12T12:12:45;101259.22;;;20.44;100.00
23574;BME280;11965;53.640;10.050;2023-08-12T12:15:13;101241.09;;;20.23;100.00
23574;BME280;11965;53.640;10.050;2023-08-12T12:17:40;101242.63;;;20.02;100.00
23574;BME280;11965;53.640;10.050;2023-08-12T12:20:08;101238.66;;;20.15;100.00
23574;BME280;11965;53.640;10.050;2023-08-12T12:22:37;101229.31;;;20.26;100.00
23574;BME280;11965;53.640;10.050;2023-08-12T12:25:10;101226.84;;;20.30;100.00
23574;BME280;11965;53.640;10.050;2023-08-12T12:27:39;101210.06;;;20.35;100.00
23574;BME280;11965;53.640;10.050;2023-08-12T12:30:07;101203.72;;;20.28;100.00
23574;BME280;11965;53.640;10.050;2023-08-12T12:32:34;101187.09;;;20.26;100.00
23574;BME280;11965;53.640;10.050;2023-08-12T12:35:01;101176.94;;;20.25;100.00